createdAt,value
2023-01-30T00:02:01.833Z,20.20
2023-01-30T00:04:28.430Z,20.90
2023-01-30T00:06:57.316Z,20.65
2023-01-30T00:09:33.510Z,20.10
2023-01-30T00:12:02.603Z,19.70
2023-01-30T00:14:29.444Z,20.15
2023-01-30T00:16:59.135Z,20.38
2023-01-30T00:19:28.178Z,20.35
2023-01-30T00:21:56.734Z,19.73
2023-01-30T00:24:26.743Z,18.65
2023-01-30T00:29:23.075Z,17.98
2023-01-30T00:31:54.536Z,18.90
2023-01-30T00:34:23.359Z,19.58
2023-01-30T00:37:07.145Z,18.15
2023-01-30T00:39:36.820Z,18.67
2023-01-30T00:42:24.992Z,19.35
2023-01-30T00:45:11.220Z,18.25
2023-01-30T00:47:39.080Z,19.88
2023-01-30T00:50:06.148Z,18.75
2023-01-30T00:52:35.133Z,18.23
2023-01-30T00:55:04.247Z,18.90
2023-01-30T00:57:33.224Z,17.77
2023-01-30T00:59:59.859Z,18.98
2023-01-30T01:02:30.023Z,19.65
2023-01-30T01:05:02.196Z,18.55
2023-01-30T01:07:31.842Z,17.40
2023-01-30T01:09:59.077Z,18.63
2023-01-30T01:12:25.698Z,18.52
2023-01-30T01:14:52.357Z,18.30
2023-01-30T01:17:19.096Z,19.50
2023-01-30T01:19:50.980Z,17.55
2023-01-30T01:22:24.928Z,17.38
2023-01-30T01:24:56.315Z,18.35
2023-01-30T01:27:23.063Z,17.60
2023-01-30T01:29:51.909Z,17.30
2023-01-30T01:32:27.932Z,17.08
2023-01-30T01:34:54.596Z,17.25
2023-01-30T01:37:25.246Z,17.50
2023-01-30T01:40:10.473Z,18.77
2023-01-30T01:42:45.047Z,17.73
2023-01-30T01:45:22.596Z,17.02
2023-01-30T01:48:03.838Z,19.25
2023-01-30T01:50:46.511Z,17.40
2023-01-30T01:53:18.599Z,17.25
2023-01-30T01:55:48.501Z,16.35
2023-01-30T01:58:24.353Z,17.08
2023-01-30T02:00:57.458Z,17.77
2023-01-30T02:03:26.807Z,13.20
2023-01-30T02:06:02.519Z,16.70
2023-01-30T02:08:41.240Z,16.75
2023-01-30T02:11:17.194Z,17.75
2023-01-30T02:13:49.111Z,16.30
2023-01-30T02:16:15.740Z,17.42
2023-01-30T02:18:46.851Z,16.92
2023-01-30T02:21:40.391Z,17.52
2023-01-30T02:24:12.942Z,18.23
2023-01-30T02:26:53.004Z,18.00
2023-01-30T02:29:36.143Z,17.70
2023-01-30T02:32:33.226Z,17.95
2023-01-30T02:35:05.699Z,17.98
2023-01-30T02:37:59.510Z,16.65
2023-01-30T02:41:00.355Z,17.92
2023-01-30T02:43:39.411Z,17.73
2023-01-30T02:46:17.827Z,17.23
2023-01-30T02:49:02.589Z,18.38
2023-01-30T02:51:33.734Z,17.20
2023-01-30T02:54:00.725Z,17.02
2023-01-30T02:56:27.936Z,17.10
2023-01-30T02:59:00.872Z,18.40
2023-01-30T03:02:05.169Z,18.08
2023-01-30T03:04:47.205Z,16.67
2023-01-30T03:07:22.469Z,15.95
2023-01-30T03:10:08.801Z,16.90
2023-01-30T03:13:05.166Z,16.85
2023-01-30T03:15:48.069Z,16.43
2023-01-30T03:18:16.416Z,16.95
2023-01-30T03:20:48.482Z,16.30
2023-01-30T03:23:15.181Z,17.00
2023-01-30T03:25:50.610Z,16.75
2023-01-30T03:28:24.667Z,15.68
2023-01-30T03:30:52.161Z,16.40
2023-01-30T03:33:22.975Z,16.40
2023-01-30T03:35:52.123Z,16.37
2023-01-30T03:38:19.229Z,16.95
2023-01-30T03:40:46.688Z,18.00
2023-01-30T03:43:21.775Z,16.92
2023-01-30T03:45:48.425Z,16.02
2023-01-30T03:48:15.681Z,16.13
2023-01-30T03:50:49.660Z,16.52
2023-01-30T03:53:16.771Z,15.25
2023-01-30T03:55:44.837Z,16.20
2023-01-30T03:58:11.516Z,15.52
2023-01-30T04:00:43.343Z,16.13
2023-01-30T04:03:09.981Z,16.10
2023-01-30T04:05:39.060Z,15.93
2023-01-30T04:08:13.249Z,16.48
2023-01-30T04:10:42.313Z,16.73
2023-01-30T04:13:13.809Z,15.55
2023-01-30T04:15:42.644Z,15.38
2023-01-30T04:18:28.002Z,15.20
2023-01-30T04:21:09.812Z,14.65
2023-01-30T04:23:44.093Z,16.55
2023-01-30T04:26:21.344Z,15.35
2023-01-30T04:28:48.053Z,16.58
2023-01-30T04:31:18.767Z,15.63
2023-01-30T04:34:17.879Z,14.45
2023-01-30T04:36:47.825Z,15.23
2023-01-30T04:39:14.855Z,15.15
2023-01-30T04:41:44.958Z,16.38
2023-01-30T04:44:12.724Z,14.70
2023-01-30T04:46:48.289Z,14.60
2023-01-30T04:49:15.626Z,14.50
2023-01-30T04:51:43.370Z,14.65
2023-01-30T04:54:12.469Z,15.13
2023-01-30T04:56:43.181Z,14.07
2023-01-30T04:59:10.024Z,15.18
2023-01-30T05:01:41.753Z,14.02
2023-01-30T05:04:10.893Z,14.27
2023-01-30T05:06:37.616Z,13.75
2023-01-30T05:09:06.695Z,13.30
2023-01-30T05:11:33.986Z,12.40
2023-01-30T05:14:00.599Z,11.93
2023-01-30T05:16:27.799Z,11.77
2023-01-30T05:18:56.511Z,12.38
2023-01-30T05:21:27.654Z,12.18
2023-01-30T05:23:57.510Z,11.95
2023-01-30T05:26:25.496Z,11.77
2023-01-30T05:28:55.853Z,12.77
2023-01-30T05:31:26.174Z,11.88
2023-01-30T05:33:55.107Z,10.95
2023-01-30T05:36:25.018Z,10.63
2023-01-30T05:38:54.300Z,11.10
2023-01-30T05:41:21.265Z,11.05
2023-01-30T05:43:51.741Z,11.27
2023-01-30T05:46:25.587Z,11.93
2023-01-30T05:48:54.480Z,11.00
2023-01-30T05:51:23.412Z,10.95
2023-01-30T05:53:51.882Z,12.02
2023-01-30T05:56:22.548Z,10.35
2023-01-30T05:58:55.769Z,11.23
2023-01-30T06:01:28.824Z,10.95
2023-01-30T06:03:57.501Z,10.75
2023-01-30T06:06:35.753Z,10.15
2023-01-30T06:09:02.633Z,11.18
2023-01-30T06:11:31.653Z,10.93
2023-01-30T06:13:58.338Z,10.23
2023-01-30T06:16:31.722Z,9.63
2023-01-30T06:19:03.675Z,10.02
2023-01-30T06:21:31.159Z,11.20
2023-01-30T06:23:57.801Z,10.30
2023-01-30T06:26:24.447Z,10.65
2023-01-30T06:28:51.125Z,9.45
2023-01-30T06:31:18.397Z,10.02
2023-01-30T06:33:45.094Z,9.95
2023-01-30T06:36:13.967Z,10.00
2023-01-30T06:38:45.460Z,8.90
2023-01-30T06:41:12.096Z,10.02
2023-01-30T06:43:38.775Z,9.18
2023-01-30T06:46:08.100Z,8.98
2023-01-30T06:48:37.728Z,9.13
2023-01-30T06:51:04.580Z,8.50
2023-01-30T06:53:31.227Z,9.32
2023-01-30T06:56:01.802Z,9.77
2023-01-30T06:58:28.708Z,11.32
2023-01-30T07:00:57.704Z,10.48
2023-01-30T07:03:26.534Z,10.25
2023-01-30T07:05:53.377Z,10.05
2023-01-30T07:08:24.248Z,10.45
2023-01-30T07:10:51.001Z,11.40
2023-01-30T07:13:17.827Z,11.77
2023-01-30T07:15:45.434Z,12.63
2023-01-30T07:18:12.381Z,13.75
2023-01-30T07:23:20.600Z,11.95
2023-01-30T07:25:47.227Z,12.65
2023-01-30T07:28:15.888Z,12.10
2023-01-30T07:30:53.047Z,12.20
2023-01-30T07:33:22.251Z,12.32
2023-01-30T07:35:51.399Z,12.65
2023-01-30T07:38:18.031Z,11.77
2023-01-30T07:40:44.762Z,11.60
2023-01-30T07:43:16.882Z,11.68
2023-01-30T07:45:47.724Z,11.70
2023-01-30T07:48:16.476Z,11.80
2023-01-30T07:50:46.721Z,11.63
2023-01-30T07:53:18.719Z,10.68
2023-01-30T07:55:45.626Z,11.18
2023-01-30T07:58:16.835Z,11.35
2023-01-30T08:00:44.424Z,11.77
2023-01-30T08:03:18.021Z,11.13
2023-01-30T08:05:50.002Z,11.15
2023-01-30T08:08:19.892Z,11.30
2023-01-30T08:10:49.096Z,11.82
2023-01-30T08:13:15.725Z,11.95
2023-01-30T08:15:42.367Z,11.65
2023-01-30T08:18:11.257Z,10.38
2023-01-30T08:20:38.050Z,9.30
2023-01-30T08:23:07.297Z,9.80
2023-01-30T08:25:35.375Z,8.18
2023-01-30T08:28:02.591Z,8.20
2023-01-30T08:30:30.533Z,8.57
2023-01-30T08:32:58.499Z,8.57
2023-01-30T08:35:27.755Z,8.13
2023-01-30T08:37:54.363Z,7.25
2023-01-30T08:40:24.167Z,7.75
2023-01-30T08:42:51.086Z,6.88
2023-01-30T08:45:17.723Z,6.03
2023-01-30T08:47:45.549Z,5.30
2023-01-30T08:50:17.748Z,4.82
2023-01-30T08:52:44.761Z,4.40
2023-01-30T08:55:13.564Z,5.00
2023-01-30T08:57:42.415Z,4.15
2023-01-30T09:00:14.323Z,3.85
2023-01-30T09:02:41.178Z,4.38
2023-01-30T09:05:08.812Z,4.13
2023-01-30T09:07:35.502Z,3.65
2023-01-30T09:10:02.078Z,3.40
2023-01-30T09:12:28.747Z,3.53
2023-01-30T09:14:59.561Z,3.20
2023-01-30T09:17:26.355Z,3.35
2023-01-30T09:19:55.274Z,4.22
2023-01-30T09:22:24.146Z,3.13
2023-01-30T09:24:50.790Z,2.80
2023-01-30T09:27:17.440Z,2.72
2023-01-30T09:29:45.391Z,3.35
2023-01-30T09:32:12.176Z,3.05
2023-01-30T09:34:38.805Z,3.05
2023-01-30T09:37:08.154Z,3.22
2023-01-30T09:39:35.722Z,3.55
2023-01-30T09:42:07.297Z,3.17
2023-01-30T09:44:55.202Z,2.90
2023-01-30T09:47:38.627Z,3.60
2023-01-30T09:50:24.639Z,3.83
2023-01-30T09:53:35.844Z,3.35
2023-01-30T09:56:06.409Z,2.95
2023-01-30T09:58:53.804Z,4.40
2023-01-30T10:01:42.846Z,3.40
2023-01-30T10:04:58.937Z,3.10
2023-01-30T10:07:41.798Z,3.58
2023-01-30T10:10:26.706Z,2.97
2023-01-30T10:13:10.192Z,3.30
2023-01-30T10:15:58.189Z,3.40
2023-01-30T10:18:39.262Z,3.00
2023-01-30T10:21:26.100Z,4.05
2023-01-30T10:24:20.620Z,3.55
2023-01-30T10:26:48.066Z,2.85
2023-01-30T10:29:33.694Z,3.15
2023-01-30T10:32:10.356Z,3.92
2023-01-30T10:34:40.743Z,2.65
2023-01-30T10:37:30.697Z,2.97
2023-01-30T10:40:23.428Z,3.40
2023-01-30T10:45:49.128Z,2.67
2023-01-30T10:48:34.325Z,3.13
2023-01-30T10:51:23.170Z,3.05
2023-01-30T10:54:01.602Z,3.00
2023-01-30T10:56:59.410Z,3.40
2023-01-30T10:59:38.464Z,3.55
2023-01-30T11:02:34.244Z,3.50
2023-01-30T11:05:12.615Z,3.78
2023-01-30T11:07:40.581Z,3.42
2023-01-30T11:10:17.995Z,3.65
2023-01-30T11:12:44.691Z,3.25
2023-01-30T11:15:11.827Z,3.30
2023-01-30T11:17:43.021Z,3.67
2023-01-30T11:20:22.453Z,3.45
2023-01-30T11:22:50.985Z,2.38
2023-01-30T11:25:21.794Z,3.08
2023-01-30T11:28:13.969Z,3.25
2023-01-30T11:30:42.877Z,3.38
2023-01-30T11:33:21.777Z,3.05
2023-01-30T11:36:07.245Z,3.03
2023-01-30T11:38:39.311Z,2.95
2023-01-30T11:41:13.395Z,2.20
2023-01-30T11:43:40.331Z,3.00
2023-01-30T11:46:12.629Z,3.10
2023-01-30T11:49:09.122Z,3.25
2023-01-30T11:51:42.957Z,2.67
2023-01-30T11:54:30.963Z,2.25
2023-01-30T11:57:01.665Z,3.53
2023-01-30T11:59:54.917Z,3.08
2023-01-30T12:02:25.909Z,2.17
2023-01-30T12:05:00.151Z,3.33
2023-01-30T12:07:31.417Z,2.40
2023-01-30T12:09:59.254Z,2.50
2023-01-30T12:12:35.727Z,3.13
2023-01-30T12:15:29.553Z,2.53
2023-01-30T12:18:01.774Z,2.53
2023-01-30T12:20:43.057Z,3.65
2023-01-30T12:23:18.768Z,2.42
2023-01-30T12:26:15.757Z,3.17
2023-01-30T12:29:01.953Z,2.65
2023-01-30T12:31:46.893Z,3.50
2023-01-30T12:34:13.831Z,2.63
2023-01-30T12:36:52.291Z,3.20
2023-01-30T12:39:56.514Z,3.03
2023-01-30T12:42:52.543Z,3.00
2023-01-30T12:45:26.321Z,2.55
2023-01-30T12:48:08.329Z,3.22
2023-01-30T12:50:54.451Z,3.08
2023-01-30T12:53:31.494Z,2.80
2023-01-30T12:56:17.919Z,2.85
2023-01-30T12:59:01.780Z,3.13
2023-01-30T13:01:52.345Z,3.33
2023-01-30T13:04:34.460Z,2.97
2023-01-30T13:07:38.087Z,2.70
2023-01-30T13:10:40.145Z,2.95
2023-01-30T13:13:31.490Z,2.97
2023-01-30T13:16:06.642Z,3.45
2023-01-30T13:18:36.826Z,2.45
2023-01-30T13:21:30.939Z,3.58
2023-01-30T13:24:20.372Z,3.55
2023-01-30T13:26:50.824Z,3.00
2023-01-30T13:29:29.952Z,2.97
2023-01-30T13:32:02.467Z,2.25
2023-01-30T13:34:36.507Z,3.22
2023-01-30T13:37:12.327Z,2.60
2023-01-30T13:40:03.778Z,2.45
2023-01-30T13:42:43.728Z,3.97
2023-01-30T13:45:22.126Z,3.10
2023-01-30T13:48:04.231Z,3.60
2023-01-30T13:50:54.230Z,2.97
2023-01-30T13:53:30.126Z,2.90
2023-01-30T13:56:27.174Z,2.60
2023-01-30T13:59:12.569Z,3.08
2023-01-30T14:02:04.282Z,2.80
2023-01-30T14:04:39.902Z,2.67
2023-01-30T14:07:12.521Z,2.47
2023-01-30T14:10:05.037Z,2.95
2023-01-30T14:12:40.995Z,3.10
2023-01-30T14:15:15.623Z,3.95
2023-01-30T14:18:02.501Z,3.22
2023-01-30T14:20:31.688Z,3.35
2023-01-30T14:23:21.402Z,2.53
2023-01-30T14:25:58.507Z,2.60
2023-01-30T14:28:25.113Z,2.75
2023-01-30T14:30:54.525Z,3.10
2023-01-30T14:33:23.560Z,3.33
2023-01-30T14:36:00.331Z,2.80
2023-01-30T14:38:33.576Z,2.67
2023-01-30T14:41:02.621Z,2.88
2023-01-30T14:43:35.225Z,3.22
2023-01-30T14:46:20.082Z,3.20
2023-01-30T14:49:01.475Z,3.42
2023-01-30T14:51:44.147Z,3.83
2023-01-30T14:54:14.399Z,2.97
2023-01-30T14:56:56.478Z,2.63
2023-01-30T14:59:25.088Z,3.38
2023-01-30T15:01:57.472Z,3.15
2023-01-30T15:04:56.247Z,3.05
2023-01-30T15:07:46.925Z,3.22
2023-01-30T15:11:01.838Z,3.85
2023-01-30T15:13:46.620Z,3.13
2023-01-30T15:16:36.602Z,3.05
2023-01-30T15:19:25.837Z,2.70
2023-01-30T15:22:34.370Z,2.95
2023-01-30T15:25:14.973Z,3.05
2023-01-30T15:28:03.246Z,2.55
2023-01-30T15:30:44.769Z,2.72
2023-01-30T15:33:29.857Z,2.78
2023-01-30T15:36:01.534Z,3.15
2023-01-30T15:38:32.751Z,3.78
2023-01-30T15:41:05.257Z,2.20
2023-01-30T15:43:50.749Z,3.38
2023-01-30T15:46:41.048Z,2.80
2023-01-30T15:49:07.632Z,3.42
2023-01-30T15:51:34.895Z,3.50
2023-01-30T15:54:08.584Z,3.42
2023-01-30T15:56:35.477Z,2.95
2023-01-30T15:59:07.447Z,3.45
2023-01-30T16:01:36.449Z,3.08
2023-01-30T16:04:07.856Z,2.78
2023-01-30T16:06:37.188Z,4.18
2023-01-30T16:09:14.600Z,2.38
2023-01-30T16:11:48.341Z,2.90
2023-01-30T16:14:17.953Z,3.35
2023-01-30T16:16:48.532Z,3.63
2023-01-30T16:19:37.764Z,3.00
2023-01-30T16:22:10.183Z,3.13
2023-01-30T16:24:46.300Z,4.15
2023-01-30T16:27:34.498Z,2.97
2023-01-30T16:30:07.613Z,3.40
2023-01-30T16:32:35.725Z,3.00
2023-01-30T16:35:27.450Z,3.30
2023-01-30T16:37:56.929Z,3.42
2023-01-30T16:40:31.831Z,3.05
2023-01-30T16:43:02.424Z,3.05
2023-01-30T16:45:35.391Z,2.90
2023-01-30T16:48:17.002Z,3.88
2023-01-30T16:50:48.039Z,3.43
2023-01-30T16:53:18.457Z,2.75
2023-01-30T16:55:57.854Z,3.45
2023-01-30T16:58:28.661Z,3.40
2023-01-30T17:00:55.448Z,3.17
2023-01-30T17:03:36.623Z,3.08
2023-01-30T17:06:12.369Z,2.95
2023-01-30T17:08:46.899Z,3.13
2023-01-30T17:11:37.543Z,3.75
2023-01-30T17:14:30.481Z,3.05
2023-01-30T17:17:07.850Z,3.30
2023-01-30T17:19:35.764Z,2.80
2023-01-30T17:22:24.289Z,2.97
2023-01-30T17:24:53.942Z,2.50
2023-01-30T17:27:20.647Z,3.85
2023-01-30T17:29:49.777Z,3.50
2023-01-30T17:32:21.389Z,2.83
2023-01-30T17:34:49.309Z,3.55
2023-01-30T17:37:19.722Z,2.90
2023-01-30T17:39:46.713Z,2.83
2023-01-30T17:42:21.880Z,3.10
2023-01-30T17:44:48.735Z,3.25
2023-01-30T17:47:17.593Z,3.35
2023-01-30T17:49:49.753Z,3.53
2023-01-30T17:52:24.575Z,3.08
2023-01-30T17:54:51.381Z,3.65
2023-01-30T17:57:22.103Z,2.60
2023-01-30T17:59:54.779Z,3.72
2023-01-30T18:02:24.108Z,3.47
2023-01-30T18:04:50.724Z,2.78
2023-01-30T18:07:22.813Z,3.60
2023-01-30T18:09:51.957Z,3.38
2023-01-30T18:12:18.574Z,3.70
2023-01-30T18:14:47.431Z,3.60
2023-01-30T18:17:14.106Z,3.80
2023-01-30T18:19:41.079Z,3.20
2023-01-30T18:22:07.661Z,3.42
2023-01-30T18:24:34.447Z,3.63
2023-01-30T18:27:01.969Z,3.35
2023-01-30T18:29:30.826Z,4.32
2023-01-30T18:32:04.781Z,3.08
2023-01-30T18:34:32.340Z,3.22
2023-01-30T18:36:59.081Z,3.60
2023-01-30T18:39:25.714Z,4.70
2023-01-30T18:41:52.344Z,4.05
2023-01-30T18:44:19.104Z,3.63
2023-01-30T18:46:48.506Z,4.38
2023-01-30T18:49:15.102Z,3.75
2023-01-30T18:51:41.740Z,3.35
2023-01-30T18:54:10.606Z,3.72
2023-01-30T18:56:39.727Z,4.18
2023-01-30T18:59:06.897Z,3.13
2023-01-30T19:01:40.582Z,2.83
2023-01-30T19:04:12.170Z,2.60
2023-01-30T19:06:43.061Z,3.08
2023-01-30T19:09:19.176Z,3.13
2023-01-30T19:12:04.282Z,3.03
2023-01-30T19:14:31.119Z,2.45
2023-01-30T19:16:57.741Z,2.80
2023-01-30T19:19:27.200Z,2.95
2023-01-30T19:21:56.871Z,2.90
2023-01-30T19:24:26.249Z,2.58
2023-01-30T19:26:52.968Z,2.55
2023-01-30T19:29:20.845Z,2.03
2023-01-30T19:31:49.972Z,2.17
2023-01-30T19:34:23.699Z,3.13
2023-01-30T19:36:50.341Z,2.65
2023-01-30T19:39:21.214Z,2.38
2023-01-30T19:41:47.836Z,2.30
2023-01-30T19:44:14.504Z,2.20
2023-01-30T19:46:41.235Z,2.15
2023-01-30T19:49:07.890Z,2.05
2023-01-30T19:51:35.050Z,2.55
2023-01-30T19:54:06.907Z,2.42
2023-01-30T19:56:34.361Z,2.28
2023-01-30T19:59:02.240Z,2.20
2023-01-30T20:01:32.688Z,2.42
2023-01-30T20:04:00.662Z,1.85
2023-01-30T20:06:30.709Z,2.83
2023-01-30T20:09:05.476Z,1.95
2023-01-30T20:11:39.587Z,1.98
2023-01-30T20:14:07.011Z,3.10
2023-01-30T20:16:35.652Z,5.32
2023-01-30T20:19:05.175Z,4.18
2023-01-30T20:21:34.360Z,3.63
2023-01-30T20:24:03.649Z,3.63
2023-01-30T20:26:34.991Z,3.83
2023-01-30T20:29:03.377Z,3.80
2023-01-30T20:31:34.639Z,4.07
2023-01-30T20:34:03.243Z,3.85
2023-01-30T20:36:29.922Z,3.95
2023-01-30T20:39:01.675Z,5.43
2023-01-30T20:41:28.395Z,4.45
2023-01-30T20:44:01.817Z,5.03
2023-01-30T20:46:42.359Z,4.47
2023-01-30T20:49:15.031Z,5.32
2023-01-30T20:51:45.618Z,4.95
2023-01-30T20:54:14.567Z,4.18
2023-01-30T20:56:44.126Z,4.10
2023-01-30T20:59:16.892Z,4.45
2023-01-30T21:01:44.142Z,3.60
2023-01-30T21:04:13.844Z,4.88
2023-01-30T21:06:46.023Z,6.00
2023-01-30T21:09:23.767Z,4.72
2023-01-30T21:11:55.338Z,4.95
2023-01-30T21:14:25.683Z,4.97
2023-01-30T21:16:53.421Z,4.75
2023-01-30T21:19:22.216Z,5.22
2023-01-30T21:21:53.253Z,5.32
2023-01-30T21:24:26.547Z,4.43
2023-01-30T21:26:59.283Z,4.95
2023-01-30T21:29:28.548Z,4.88
2023-01-30T21:31:57.367Z,4.55
2023-01-30T21:34:27.220Z,4.97
2023-01-30T21:37:12.418Z,5.35
2023-01-30T21:39:59.858Z,4.30
2023-01-30T21:42:45.432Z,5.55
2023-01-30T21:45:12.241Z,4.90
2023-01-30T21:47:38.977Z,4.47
2023-01-30T21:50:06.214Z,5.40
2023-01-30T21:52:33.284Z,4.35
2023-01-30T21:55:05.221Z,5.60
2023-01-30T21:57:31.883Z,4.47
2023-01-30T22:00:01.356Z,5.32
2023-01-30T22:02:30.547Z,4.57
2023-01-30T22:05:02.167Z,5.05
2023-01-30T22:07:30.074Z,4.60
2023-01-30T22:09:57.121Z,4.25
2023-01-30T22:12:29.028Z,4.20
2023-01-30T22:14:55.758Z,4.07
2023-01-30T22:17:22.830Z,5.05
2023-01-30T22:19:51.925Z,4.30
2023-01-30T22:22:19.048Z,5.25
2023-01-30T22:24:48.172Z,4.65
2023-01-30T22:27:16.253Z,4.28
2023-01-30T22:29:42.937Z,4.10
2023-01-30T22:32:12.038Z,4.38
2023-01-30T22:34:42.141Z,4.85
2023-01-30T22:37:13.670Z,4.80
2023-01-30T22:39:40.856Z,4.53
2023-01-30T22:42:10.616Z,4.35
2023-01-30T22:44:39.497Z,4.40
2023-01-30T22:47:06.315Z,4.30
2023-01-30T22:49:32.921Z,4.32
2023-01-30T22:52:02.070Z,4.13
2023-01-30T22:54:31.868Z,4.18
2023-01-30T22:56:58.490Z,4.38
2023-01-30T22:59:25.204Z,4.45
2023-01-30T23:01:51.927Z,5.15
2023-01-30T23:04:23.412Z,3.53
2023-01-30T23:06:52.768Z,4.18
2023-01-30T23:09:22.101Z,4.47
2023-01-30T23:12:15.820Z,4.18
2023-01-30T23:14:42.988Z,3.92
2023-01-30T23:17:28.725Z,4.25
2023-01-30T23:20:04.715Z,5.15
2023-01-30T23:22:33.772Z,4.65
2023-01-30T23:25:00.417Z,5.30
2023-01-30T23:27:29.341Z,3.97
2023-01-30T23:30:03.555Z,5.22
